createdAt,value
2018-02-21T00:01:06.390Z,30.07
2018-02-21T00:03:33.904Z,27.50
2018-02-21T00:06:02.111Z,29.10
2018-02-21T00:08:29.577Z,30.10
2018-02-21T00:10:57.035Z,32.27
2018-02-21T00:13:24.472Z,27.93
2018-02-21T00:15:51.927Z,29.83
2018-02-21T00:18:19.381Z,31.07
2018-02-21T00:20:46.817Z,31.53
2018-02-21T00:23:15.034Z,31.83
2018-02-21T00:25:43.586Z,33.07
2018-02-21T00:28:11.794Z,35.00
2018-02-21T00:30:39.248Z,34.53
2018-02-21T00:33:06.702Z,31.00
2018-02-21T00:35:34.145Z,33.50
2018-02-21T00:38:01.606Z,30.60
2018-02-21T00:40:29.098Z,34.70
2018-02-21T00:42:56.544Z,34.97
2018-02-21T00:45:24.001Z,30.67
2018-02-21T00:47:51.454Z,34.07
2018-02-21T00:50:18.902Z,31.57
2018-02-21T00:52:46.366Z,33.30
2018-02-21T00:55:13.823Z,33.60
2018-02-21T00:57:41.280Z,34.03
2018-02-21T01:00:08.734Z,33.77
2018-02-21T01:02:36.183Z,34.00
2018-02-21T01:05:03.646Z,31.70
2018-02-21T01:07:31.098Z,32.43
2018-02-21T01:09:58.550Z,33.40
2018-02-21T01:12:26.005Z,31.90
2018-02-21T01:14:53.458Z,34.20
2018-02-21T01:17:20.896Z,32.20
2018-02-21T01:19:49.127Z,33.60
2018-02-21T01:22:16.572Z,31.67
2018-02-21T01:24:44.035Z,33.47
2018-02-21T01:27:11.484Z,30.47
2018-02-21T01:29:38.941Z,35.83
2018-02-21T01:32:06.394Z,34.40
2018-02-21T01:34:33.855Z,31.97
2018-02-21T01:37:01.314Z,31.57
2018-02-21T01:39:28.757Z,31.53
2018-02-21T01:41:56.207Z,34.37
2018-02-21T01:44:23.691Z,30.07
2018-02-21T01:46:51.146Z,28.70
2018-02-21T01:49:18.584Z,30.20
2018-02-21T01:51:46.113Z,27.77
2018-02-21T01:54:14.327Z,29.90
2018-02-21T01:56:41.781Z,30.77
2018-02-21T01:59:09.234Z,31.33
2018-02-21T02:01:36.684Z,30.20
2018-02-21T02:04:04.164Z,28.90
2018-02-21T02:06:31.618Z,28.30
2018-02-21T02:08:59.067Z,28.97
2018-02-21T02:11:26.516Z,27.67
2018-02-21T02:13:53.973Z,28.70
2018-02-21T02:16:21.412Z,28.70
2018-02-21T02:18:49.650Z,26.93
2018-02-21T02:21:17.127Z,27.57
2018-02-21T02:23:44.560Z,32.77
2018-02-21T02:26:12.018Z,30.30
2018-02-21T02:28:39.460Z,26.03
2018-02-21T02:31:06.907Z,29.77
2018-02-21T02:33:34.454Z,33.17
2018-02-21T02:36:01.896Z,31.73
2018-02-21T02:38:40.860Z,31.90
2018-02-21T02:41:08.314Z,30.50
2018-02-21T02:43:35.758Z,31.10
2018-02-21T02:46:03.223Z,31.80
2018-02-21T02:48:30.662Z,32.20
2018-02-21T02:50:58.115Z,33.47
2018-02-21T02:53:26.325Z,33.50
2018-02-21T02:55:53.768Z,33.17
2018-02-21T02:58:21.214Z,35.80
2018-02-21T03:00:48.673Z,37.70
2018-02-21T03:03:16.109Z,34.63
2018-02-21T03:05:44.327Z,33.97
2018-02-21T03:08:11.770Z,39.33
2018-02-21T03:10:39.234Z,30.97
2018-02-21T03:13:06.765Z,36.20
2018-02-21T03:15:34.222Z,35.63
2018-02-21T03:18:02.448Z,38.63
2018-02-21T03:20:29.898Z,37.33
2018-02-21T03:22:57.357Z,33.87
2018-02-21T03:25:24.816Z,39.93
2018-02-21T03:27:52.281Z,40.93
2018-02-21T03:30:19.781Z,35.30
2018-02-21T03:32:48.001Z,39.10
2018-02-21T03:35:15.532Z,39.43
2018-02-21T03:37:42.973Z,37.17
2018-02-21T03:40:11.199Z,35.03
2018-02-21T03:42:38.647Z,39.73
2018-02-21T03:45:06.096Z,39.03
2018-02-21T03:47:33.562Z,39.17
2018-02-21T03:50:00.995Z,36.43
2018-02-21T03:52:28.452Z,35.80
2018-02-21T03:54:55.897Z,42.40
2018-02-21T03:57:23.344Z,39.73
2018-02-21T03:59:51.558Z,41.00
2018-02-21T04:02:19.029Z,39.10
2018-02-21T04:04:47.232Z,39.03
2018-02-21T04:07:14.678Z,38.47
2018-02-21T04:09:42.128Z,34.77
2018-02-21T04:12:09.580Z,36.97
2018-02-21T04:14:37.031Z,40.00
2018-02-21T04:17:04.554Z,33.90
2018-02-21T04:19:32.006Z,33.60
2018-02-21T04:22:00.295Z,32.20
2018-02-21T04:24:27.756Z,35.90
2018-02-21T04:26:55.214Z,35.77
2018-02-21T04:29:22.663Z,25.27
2018-02-21T04:31:50.127Z,33.30
2018-02-21T04:34:17.574Z,34.30
2018-02-21T04:36:45.036Z,35.80
2018-02-21T04:39:12.477Z,34.40
2018-02-21T04:41:40.705Z,34.87
2018-02-21T04:44:08.157Z,33.57
2018-02-21T04:46:35.603Z,38.10
2018-02-21T04:49:03.061Z,34.97
2018-02-21T04:51:30.716Z,36.77
2018-02-21T04:53:58.179Z,32.90
2018-02-21T04:56:27.193Z,33.33
2018-02-21T04:59:00.434Z,34.57
2018-02-21T05:01:28.664Z,33.13
2018-02-21T05:03:56.105Z,33.10
2018-02-21T05:06:23.561Z,34.97
2018-02-21T05:08:51.009Z,33.90
2018-02-21T05:11:18.468Z,32.43
2018-02-21T05:13:45.902Z,33.33
2018-02-21T05:16:13.351Z,29.17
2018-02-21T05:18:41.570Z,34.40
2018-02-21T05:21:09.004Z,32.33
2018-02-21T05:23:36.447Z,34.50
2018-02-21T05:26:03.905Z,33.00
2018-02-21T05:28:31.347Z,32.87
2018-02-21T05:30:59.623Z,32.47
2018-02-21T05:33:27.840Z,34.30
2018-02-21T05:35:55.290Z,33.60
2018-02-21T05:38:22.752Z,33.97
2018-02-21T05:40:50.184Z,32.70
2018-02-21T05:43:18.411Z,34.53
2018-02-21T05:45:45.861Z,36.80
2018-02-21T05:48:13.321Z,30.70
2018-02-21T05:50:40.766Z,29.87
2018-02-21T05:53:08.255Z,32.33
2018-02-21T05:55:35.665Z,33.07
2018-02-21T05:58:03.104Z,35.93
2018-02-21T06:00:30.552Z,31.40
2018-02-21T06:02:58.768Z,32.70
2018-02-21T06:05:26.199Z,34.70
2018-02-21T06:07:53.727Z,34.70
2018-02-21T06:10:21.174Z,33.97
2018-02-21T06:12:48.631Z,38.70
2018-02-21T06:15:16.114Z,37.57
2018-02-21T06:17:44.333Z,33.37
2018-02-21T06:20:11.768Z,32.93
2018-02-21T06:22:39.217Z,34.87
2018-02-21T06:25:06.759Z,35.03
2018-02-21T06:27:34.158Z,34.00
2018-02-21T06:30:01.607Z,35.60
2018-02-21T06:32:29.064Z,35.33
2018-02-21T06:34:56.503Z,35.63
2018-02-21T06:37:23.951Z,36.43
2018-02-21T06:39:52.175Z,31.17
2018-02-21T06:42:19.624Z,32.13
2018-02-21T06:44:47.061Z,31.20
2018-02-21T06:47:14.519Z,35.90
2018-02-21T06:49:41.968Z,27.63
2018-02-21T06:52:09.431Z,37.10
2018-02-21T06:54:36.909Z,34.87
2018-02-21T06:57:05.076Z,32.47
2018-02-21T06:59:32.720Z,34.60
2018-02-21T07:02:00.202Z,34.23
2018-02-21T07:04:27.675Z,30.73
2018-02-21T07:06:55.155Z,36.20
2018-02-21T07:09:22.562Z,32.17
2018-02-21T07:11:49.996Z,34.27
2018-02-21T07:14:17.444Z,35.17
2018-02-21T07:16:45.656Z,37.03
2018-02-21T07:19:13.104Z,33.67
2018-02-21T07:21:40.550Z,33.73
2018-02-21T07:24:07.997Z,32.67
2018-02-21T07:26:36.207Z,34.90
2018-02-21T07:29:03.656Z,33.37
2018-02-21T07:31:31.106Z,32.37
2018-02-21T07:33:58.582Z,32.63
2018-02-21T07:36:26.027Z,28.10
2018-02-21T07:38:53.464Z,29.20
2018-02-21T07:41:20.904Z,28.37
2018-02-21T07:43:49.142Z,31.07
2018-02-21T07:46:16.605Z,32.13
2018-02-21T07:48:44.046Z,28.60
2018-02-21T07:51:11.503Z,31.57
2018-02-21T07:53:38.945Z,24.83
2018-02-21T07:56:06.384Z,26.97
2018-02-21T07:58:33.837Z,25.67
2018-02-21T08:01:02.069Z,26.90
2018-02-21T08:03:29.501Z,26.60
2018-02-21T08:05:56.977Z,28.17
2018-02-21T08:08:24.442Z,30.97
2018-02-21T08:10:51.893Z,27.23
2018-02-21T08:13:19.346Z,32.20
2018-02-21T08:15:46.801Z,24.90
2018-02-21T08:18:14.265Z,29.97
2018-02-21T08:20:41.770Z,23.33
2018-02-21T08:23:09.976Z,26.73
2018-02-21T08:25:37.422Z,29.67
2018-02-21T08:28:05.906Z,30.17
2018-02-21T08:30:33.355Z,28.77
2018-02-21T08:33:00.824Z,29.97
2018-02-21T08:35:28.272Z,20.37
2018-02-21T08:37:55.762Z,25.57
2018-02-21T08:40:23.246Z,29.03
2018-02-21T08:42:50.697Z,27.87
2018-02-21T08:45:18.144Z,28.00
2018-02-21T08:47:45.597Z,25.77
2018-02-21T08:50:13.049Z,20.73
2018-02-21T08:52:40.593Z,27.77
2018-02-21T08:55:08.104Z,26.90
2018-02-21T08:57:35.553Z,29.67
2018-02-21T09:00:02.988Z,26.20
2018-02-21T09:02:30.443Z,27.83
2018-02-21T09:04:57.907Z,27.63
2018-02-21T09:07:26.116Z,29.97
2018-02-21T09:09:54.333Z,28.50
2018-02-21T09:12:21.780Z,28.60
2018-02-21T09:14:49.218Z,25.37
2018-02-21T09:17:16.663Z,19.03
2018-02-21T09:19:45.872Z,26.77
2018-02-21T09:22:14.139Z,27.70
2018-02-21T09:24:42.349Z,29.03
2018-02-21T09:27:09.805Z,29.57
2018-02-21T09:29:37.270Z,26.30
2018-02-21T09:32:04.736Z,28.87
2018-02-21T09:34:32.184Z,25.50
2018-02-21T09:36:59.646Z,22.70
2018-02-21T09:39:27.092Z,25.40
2018-02-21T09:41:54.528Z,27.50
2018-02-21T09:44:21.981Z,27.30
2018-02-21T09:46:50.195Z,25.97
2018-02-21T09:49:17.641Z,27.63
2018-02-21T09:51:45.109Z,26.53
2018-02-21T09:54:12.603Z,25.90
2018-02-21T09:56:40.033Z,27.27
2018-02-21T09:59:07.499Z,28.87
2018-02-21T10:01:34.945Z,24.77
2018-02-21T10:04:02.447Z,25.23
2018-02-21T10:06:30.664Z,25.07
2018-02-21T10:08:58.113Z,24.10
2018-02-21T10:11:25.551Z,24.90
2018-02-21T10:13:52.996Z,25.30
2018-02-21T10:16:21.212Z,26.17
2018-02-21T10:18:48.666Z,24.13
2018-02-21T10:21:16.100Z,23.53
2018-02-21T10:23:43.548Z,24.30
2018-02-21T10:26:11.755Z,25.33
2018-02-21T10:28:39.209Z,24.97
2018-02-21T10:31:06.671Z,23.60
2018-02-21T10:33:34.119Z,24.70
2018-02-21T10:36:01.564Z,23.00
2018-02-21T10:38:29.052Z,23.80
2018-02-21T10:40:57.216Z,26.23
2018-02-21T10:43:24.670Z,18.97
2018-02-21T10:45:52.130Z,24.47
2018-02-21T10:48:19.585Z,24.73
2018-02-21T10:50:47.025Z,22.53
2018-02-21T10:53:14.474Z,23.63
2018-02-21T10:55:42.686Z,23.77
2018-02-21T10:58:10.150Z,23.80
2018-02-21T11:00:43.164Z,21.90
2018-02-21T11:03:10.605Z,25.17
2018-02-21T11:05:38.041Z,22.00
2018-02-21T11:08:05.495Z,21.30
2018-02-21T11:10:32.934Z,21.63
2018-02-21T11:13:00.393Z,21.80
2018-02-21T11:15:27.834Z,23.67
2018-02-21T11:17:56.056Z,22.87
2018-02-21T11:20:23.505Z,20.47
2018-02-21T11:22:50.967Z,19.33
2018-02-21T11:25:18.412Z,22.70
2018-02-21T11:27:45.873Z,19.63
2018-02-21T11:30:13.286Z,21.03
2018-02-21T11:32:41.507Z,20.47
2018-02-21T11:35:08.956Z,22.27
2018-02-21T11:37:36.397Z,20.33
2018-02-21T11:40:03.839Z,18.00
2018-02-21T11:42:32.052Z,19.33
2018-02-21T11:44:59.504Z,19.87
2018-02-21T11:47:26.964Z,22.10
2018-02-21T11:49:54.420Z,20.77
2018-02-21T11:52:21.863Z,20.70
2018-02-21T11:54:50.333Z,20.13
2018-02-21T11:57:17.789Z,19.30
2018-02-21T11:59:45.234Z,19.97
2018-02-21T12:02:13.428Z,20.40
2018-02-21T12:04:40.966Z,20.40
2018-02-21T12:07:08.412Z,23.10
2018-02-21T12:09:35.849Z,17.90
2018-02-21T12:12:03.340Z,19.97
2018-02-21T12:14:31.556Z,19.23
2018-02-21T12:16:59.089Z,19.90
2018-02-21T12:19:27.291Z,20.27
2018-02-21T12:21:54.741Z,20.90
2018-02-21T12:24:22.202Z,21.73
2018-02-21T12:26:49.641Z,21.20
2018-02-21T12:29:17.089Z,21.83
2018-02-21T12:31:47.123Z,22.07
2018-02-21T12:34:14.632Z,19.90
2018-02-21T12:36:42.215Z,20.80
2018-02-21T12:39:16.068Z,20.13
2018-02-21T12:41:43.512Z,19.83
2018-02-21T12:44:10.964Z,20.47
2018-02-21T12:46:38.408Z,18.70
2018-02-21T12:49:05.860Z,18.80
2018-02-21T12:51:33.299Z,21.40
2018-02-21T12:54:01.528Z,19.73
2018-02-21T12:56:29.043Z,20.33
2018-02-21T12:58:57.256Z,17.27
2018-02-21T13:01:24.717Z,18.60
2018-02-21T13:03:52.174Z,17.83
2018-02-21T13:06:19.610Z,19.97
2018-02-21T13:08:47.063Z,18.50
2018-02-21T13:11:14.496Z,15.93
2018-02-21T13:13:42.712Z,17.80
2018-02-21T13:16:10.166Z,16.73
2018-02-21T13:18:37.596Z,14.43
2018-02-21T13:21:05.816Z,16.80
2018-02-21T13:23:33.261Z,17.30
2018-02-21T13:26:00.710Z,15.80
2018-02-21T13:28:28.156Z,15.17
2018-02-21T13:30:55.604Z,11.37
2018-02-21T13:33:23.815Z,15.13
2018-02-21T13:35:51.253Z,14.27
2018-02-21T13:38:18.719Z,14.77
2018-02-21T13:40:46.169Z,15.53
2018-02-21T13:43:13.608Z,15.63
2018-02-21T13:45:41.056Z,15.37
2018-02-21T13:48:09.341Z,11.60
2018-02-21T13:50:37.584Z,16.87
2018-02-21T13:53:05.023Z,15.30
2018-02-21T13:55:32.499Z,15.13
2018-02-21T13:57:59.934Z,13.93
2018-02-21T14:00:27.396Z,11.90
2018-02-21T14:02:54.912Z,12.70
2018-02-21T14:05:22.371Z,14.00
2018-02-21T14:07:49.826Z,15.13
2018-02-21T14:10:18.046Z,14.10
2018-02-21T14:12:45.600Z,16.10
2018-02-21T14:15:13.044Z,11.30
2018-02-21T14:17:40.499Z,13.27
2018-02-21T14:20:07.958Z,14.37
2018-02-21T14:22:35.394Z,14.40
2018-02-21T14:25:02.844Z,12.17
2018-02-21T14:27:30.300Z,13.27
2018-02-21T14:29:58.576Z,14.30
2018-02-21T14:32:26.154Z,13.83
2018-02-21T14:34:53.598Z,13.43
2018-02-21T14:37:21.044Z,13.70
2018-02-21T14:39:49.277Z,14.70
2018-02-21T14:42:16.716Z,16.00
2018-02-21T14:44:44.167Z,14.20
2018-02-21T14:47:11.781Z,9.27
2018-02-21T14:49:39.999Z,13.50
2018-02-21T14:52:07.490Z,12.60
2018-02-21T14:54:34.936Z,14.80
2018-02-21T14:57:02.373Z,9.60
2018-02-21T14:59:30.073Z,13.60
2018-02-21T15:01:57.586Z,14.90
2018-02-21T15:04:25.019Z,14.17
2018-02-21T15:06:53.246Z,13.70
2018-02-21T15:09:20.689Z,13.50
2018-02-21T15:11:48.155Z,15.07
2018-02-21T15:14:15.598Z,14.63
2018-02-21T15:16:43.061Z,12.90
2018-02-21T15:19:10.622Z,16.70
2018-02-21T15:21:38.089Z,14.20
2018-02-21T15:24:05.512Z,13.30
2018-02-21T15:26:32.958Z,14.27
2018-02-21T15:29:01.239Z,13.07
2018-02-21T15:31:28.683Z,13.90
2018-02-21T15:33:56.910Z,11.80
2018-02-21T15:36:24.393Z,11.70
2018-02-21T15:38:51.792Z,13.53
2018-02-21T15:41:20.046Z,13.73
2018-02-21T15:43:47.436Z,13.57
2018-02-21T15:46:14.881Z,13.97
2018-02-21T15:48:42.320Z,14.07
2018-02-21T15:51:10.530Z,13.10
2018-02-21T15:53:37.993Z,13.50
2018-02-21T15:56:05.458Z,15.70
2018-02-21T15:58:32.910Z,10.63
2018-02-21T16:01:00.440Z,13.37
2018-02-21T16:03:27.900Z,13.80
2018-02-21T16:05:55.341Z,13.03
2018-02-21T16:08:23.678Z,13.87
2018-02-21T16:10:51.184Z,16.07
2018-02-21T16:13:18.627Z,13.00
2018-02-21T16:15:46.861Z,12.90
2018-02-21T16:18:14.370Z,12.60
2018-02-21T16:20:42.643Z,13.47
2018-02-21T16:23:10.197Z,13.30
2018-02-21T16:25:37.642Z,13.13
2018-02-21T16:28:05.091Z,14.20
2018-02-21T16:30:32.546Z,15.53
2018-02-21T16:32:59.999Z,12.47
2018-02-21T16:35:27.651Z,13.17
2018-02-21T16:37:55.091Z,14.57
2018-02-21T16:40:22.644Z,14.00
2018-02-21T16:42:50.092Z,12.10
2018-02-21T16:45:17.549Z,16.17
2018-02-21T16:47:47.044Z,12.53
2018-02-21T16:50:14.603Z,11.90
2018-02-21T16:52:42.814Z,11.80
2018-02-21T16:55:10.266Z,11.50
2018-02-21T16:57:37.719Z,11.27
2018-02-21T17:00:05.180Z,11.23
2018-02-21T17:02:32.653Z,11.73
2018-02-21T17:05:00.114Z,11.97
2018-02-21T17:07:27.564Z,10.40
2018-02-21T17:09:55.016Z,9.13
2018-02-21T17:12:22.472Z,11.37
2018-02-21T17:14:49.931Z,10.10
2018-02-21T17:17:17.396Z,10.50
2018-02-21T17:19:44.848Z,11.57
2018-02-21T17:22:12.369Z,9.70
2018-02-21T17:24:40.602Z,11.03
2018-02-21T17:27:08.059Z,10.03
2018-02-21T17:29:35.503Z,10.20
2018-02-21T17:32:02.951Z,9.77
2018-02-21T17:34:30.400Z,10.30
2018-02-21T17:36:57.846Z,10.37
2018-02-21T17:39:26.309Z,9.30
2018-02-21T17:41:53.757Z,11.20
2018-02-21T17:44:21.973Z,10.03
2018-02-21T17:46:49.432Z,11.40
2018-02-21T17:49:16.877Z,11.70
2018-02-21T17:51:44.385Z,11.80
2018-02-21T17:54:11.851Z,11.27
2018-02-21T17:56:39.299Z,11.47
2018-02-21T17:59:06.732Z,11.93
2018-02-21T18:01:34.182Z,11.90
2018-02-21T18:04:01.653Z,14.00
2018-02-21T18:06:29.100Z,13.40
2018-02-21T18:08:56.607Z,13.60
2018-02-21T18:11:24.820Z,11.60
2018-02-21T18:13:52.277Z,14.10
2018-02-21T18:16:19.838Z,13.03
2018-02-21T18:18:47.289Z,13.70
2018-02-21T18:21:20.494Z,13.00
2018-02-21T18:23:47.961Z,13.53
2018-02-21T18:26:15.424Z,14.27
2018-02-21T18:28:42.873Z,16.63
2018-02-21T18:31:10.384Z,15.63
2018-02-21T18:33:37.837Z,13.20
2018-02-21T18:36:06.105Z,13.30
2018-02-21T18:38:33.501Z,13.90
2018-02-21T18:41:01.057Z,16.13
2018-02-21T18:43:28.498Z,14.57
2018-02-21T18:45:55.961Z,20.30
2018-02-21T18:48:23.393Z,22.83
2018-02-21T18:50:51.616Z,16.73
2018-02-21T18:53:19.073Z,17.10
2018-02-21T18:55:46.678Z,18.20
2018-02-21T18:58:14.111Z,16.40
2018-02-21T19:00:41.560Z,14.73
2018-02-21T19:03:09.070Z,15.23
2018-02-21T19:05:37.297Z,18.00
2018-02-21T19:08:04.806Z,18.40
2018-02-21T19:10:33.027Z,18.00
2018-02-21T19:13:00.541Z,18.67
2018-02-21T19:15:27.999Z,20.57
2018-02-21T19:17:55.439Z,22.00
2018-02-21T19:20:23.667Z,19.50
2018-02-21T19:22:51.116Z,18.80
2018-02-21T19:25:19.575Z,21.27
2018-02-21T19:27:47.019Z,22.33
2018-02-21T19:30:14.473Z,22.63
2018-02-21T19:32:42.704Z,22.53
2018-02-21T19:35:10.162Z,20.87
2018-02-21T19:37:38.608Z,21.50
2018-02-21T19:40:06.135Z,20.13
2018-02-21T19:42:34.350Z,22.53
2018-02-21T19:45:01.799Z,23.53
2018-02-21T19:47:29.247Z,22.77
2018-02-21T19:49:56.713Z,24.17
2018-02-21T19:52:24.170Z,22.83
2018-02-21T19:54:51.624Z,20.47
2018-02-21T19:57:19.122Z,24.60
2018-02-21T19:59:46.588Z,25.00
2018-02-21T20:02:14.041Z,24.10
2018-02-21T20:04:41.493Z,23.43
2018-02-21T20:07:09.023Z,23.00
2018-02-21T20:09:36.482Z,24.50
2018-02-21T20:12:03.929Z,22.03
2018-02-21T20:14:31.372Z,23.47
2018-02-21T20:16:59.585Z,23.50
2018-02-21T20:19:27.041Z,22.13
2018-02-21T20:21:54.479Z,23.97
2018-02-21T20:24:21.982Z,24.23
2018-02-21T20:26:49.368Z,25.10
2018-02-21T20:29:17.720Z,24.50
2018-02-21T20:31:45.180Z,27.00
2018-02-21T20:34:12.631Z,22.50
2018-02-21T20:36:40.084Z,24.90
2018-02-21T20:39:07.571Z,23.97
2018-02-21T20:41:35.794Z,24.97
2018-02-21T20:44:03.276Z,26.20
2018-02-21T20:46:30.720Z,24.90
2018-02-21T20:48:58.185Z,24.20
2018-02-21T20:51:25.646Z,26.47
2018-02-21T20:53:53.102Z,23.77
2018-02-21T20:56:20.543Z,20.10
2018-02-21T20:58:47.991Z,26.07
2018-02-21T21:01:15.490Z,26.87
2018-02-21T21:03:42.928Z,24.17
2018-02-21T21:06:10.379Z,24.13
2018-02-21T21:08:37.908Z,24.50
2018-02-21T21:11:05.352Z,23.27
2018-02-21T21:13:32.802Z,21.70
2018-02-21T21:16:01.019Z,24.83
2018-02-21T21:18:28.482Z,24.37
2018-02-21T21:20:55.965Z,24.67
2018-02-21T21:23:23.417Z,25.43
2018-02-21T21:25:50.866Z,25.00
2018-02-21T21:28:18.308Z,26.60
2018-02-21T21:30:45.775Z,27.20
2018-02-21T21:33:13.207Z,25.13
2018-02-21T21:35:40.662Z,24.33
2018-02-21T21:38:08.110Z,25.47
2018-02-21T21:40:35.568Z,23.23
2018-02-21T21:43:03.016Z,25.87
2018-02-21T21:45:30.472Z,22.47
2018-02-21T21:47:57.935Z,23.83
2018-02-21T21:50:25.396Z,25.17
2018-02-21T21:52:52.946Z,23.97
2018-02-21T21:55:21.216Z,24.57
2018-02-21T21:57:49.573Z,22.47
2018-02-21T22:00:17.008Z,22.47
2018-02-21T22:02:44.505Z,23.73
2018-02-21T22:05:11.887Z,24.23
2018-02-21T22:07:39.336Z,23.70
2018-02-21T22:10:06.817Z,24.57
2018-02-21T22:12:34.272Z,24.00
2018-02-21T22:15:01.717Z,21.07
2018-02-21T22:17:29.174Z,20.73
2018-02-21T22:19:56.621Z,23.73
2018-02-21T22:22:24.419Z,22.47
2018-02-21T22:24:51.868Z,22.60
2018-02-21T22:27:19.328Z,22.00
2018-02-21T22:29:46.781Z,23.33
2018-02-21T22:32:14.245Z,23.10
2018-02-21T22:34:41.688Z,25.67
2018-02-21T22:37:09.136Z,21.90
2018-02-21T22:39:36.575Z,21.40
2018-02-21T22:42:04.052Z,22.67
2018-02-21T22:44:31.498Z,24.37
2018-02-21T22:46:58.948Z,23.40
2018-02-21T22:49:27.255Z,21.77
2018-02-21T22:51:54.697Z,22.70
2018-02-21T22:54:22.144Z,23.70
2018-02-21T22:56:49.593Z,23.60
2018-02-21T22:59:17.814Z,24.33
2018-02-21T23:01:45.262Z,23.57
2018-02-21T23:04:12.713Z,23.13
2018-02-21T23:06:40.163Z,24.37
2018-02-21T23:09:07.612Z,22.90
2018-02-21T23:11:35.056Z,24.23
2018-02-21T23:14:04.090Z,24.10
2018-02-21T23:16:31.549Z,23.50
2018-02-21T23:18:59.002Z,24.23
2018-02-21T23:21:26.457Z,25.17
2018-02-21T23:23:53.917Z,25.87
2018-02-21T23:26:21.371Z,23.57
2018-02-21T23:28:48.840Z,22.73
2018-02-21T23:31:16.298Z,16.83
2018-02-21T23:33:43.735Z,22.13
2018-02-21T23:36:11.168Z,23.47
2018-02-21T23:38:38.612Z,23.40
2018-02-21T23:41:06.843Z,24.40
2018-02-21T23:43:34.285Z,22.77
2018-02-21T23:46:01.728Z,21.37
2018-02-21T23:48:30.200Z,22.00
2018-02-21T23:50:57.641Z,23.00
2018-02-21T23:53:25.873Z,24.83
2018-02-21T23:55:53.324Z,21.43
2018-02-21T23:58:20.789Z,21.07
